地図

経路データ

SID SEASON NUMBER BASIN SUBBASIN NAME ISO_TIME NATURE LAT LON WMO_WIND WMO_PRES WMO_AGENCY TRACK_TYPE DIST2LAND LANDFALL IFLAG USA_AGENCY USA_ATCF_ID USA_LAT USA_LON USA_RECORD USA_STATUS USA_WIND USA_PRES USA_SSHS USA_R34_NE USA_R34_SE USA_R34_SW USA_R34_NW USA_R50_NE USA_R50_SE USA_R50_SW USA_R50_NW USA_R64_NE USA_R64_SE USA_R64_SW USA_R64_NW USA_POCI USA_ROCI USA_RMW USA_EYE TOKYO_LAT TOKYO_LON TOKYO_GRADE TOKYO_WIND TOKYO_PRES TOKYO_R50_DIR TOKYO_R50_LONG TOKYO_R50_SHORT TOKYO_R30_DIR TOKYO_R30_LONG TOKYO_R30_SHORT TOKYO_LAND CMA_LAT CMA_LON CMA_CAT CMA_WIND CMA_PRES HKO_LAT HKO_LON HKO_CAT HKO_WIND HKO_PRES NEWDELHI_LAT NEWDELHI_LON NEWDELHI_GRADE NEWDELHI_WIND NEWDELHI_PRES NEWDELHI_CI NEWDELHI_DP NEWDELHI_POCI REUNION_LAT REUNION_LON REUNION_TYPE REUNION_WIND REUNION_PRES REUNION_TNUM REUNION_CI REUNION_RMW REUNION_R34_NE REUNION_R34_SE REUNION_R34_SW REUNION_R34_NW REUNION_R50_NE REUNION_R50_SE REUNION_R50_SW REUNION_R50_NW REUNION_R64_NE REUNION_R64_SE REUNION_R64_SW REUNION_R64_NW BOM_LAT BOM_LON BOM_TYPE BOM_WIND BOM_PRES BOM_TNUM BOM_CI BOM_RMW BOM_R34_NE BOM_R34_SE BOM_R34_SW BOM_R34_NW BOM_R50_NE BOM_R50_SE BOM_R50_SW BOM_R50_NW BOM_R64_NE BOM_R64_SE BOM_R64_SW BOM_R64_NW BOM_ROCI BOM_POCI BOM_EYE BOM_POS_METHOD BOM_PRES_METHOD NADI_LAT NADI_LON NADI_CAT NADI_WIND NADI_PRES WELLINGTON_LAT WELLINGTON_LON WELLINGTON_WIND WELLINGTON_PRES DS824_LAT DS824_LON DS824_STAGE DS824_WIND DS824_PRES TD9636_LAT TD9636_LON TD9636_STAGE TD9636_WIND TD9636_PRES TD9635_LAT TD9635_LON TD9635_WIND TD9635_PRES TD9635_ROCI NEUMANN_LAT NEUMANN_LON NEUMANN_CLASS NEUMANN_WIND NEUMANN_PRES MLC_LAT MLC_LON MLC_CLASS MLC_WIND MLC_PRES USA_GUST BOM_GUST BOM_GUST_PER REUNION_GUST REUNION_GUST_PER USA_SEAHGT USA_SEARAD_NE USA_SEARAD_SE USA_SEARAD_SW USA_SEARAD_NW STORM_SPEED STORM_DIR
1955010S16118 1955 5 SI WA NOT_NAMED 1955-01-10 04:00:00 NR -16.2000 118.200 990 bom main 443 419 ______O_______ -1 -16.2000 118.200 990 7 120
1955010S16118 1955 5 SI WA NOT_NAMED 1955-01-10 06:00:00 NR -16.3139 118.410 main 419 381 ______P_______ -1 -16.3139 118.410 7 120
1955010S16118 1955 5 SI WA NOT_NAMED 1955-01-10 09:00:00 NR -16.4856 118.723 main 381 344 ______P_______ -1 -16.4856 118.723 7 120
1955010S16118 1955 5 SI WA NOT_NAMED 1955-01-10 12:00:00 NR -16.6603 119.034 main 344 310 ______P_______ -1 -16.6603 119.034 7 121
1955010S16118 1955 5 SI WA NOT_NAMED 1955-01-10 15:00:00 NR -16.8398 119.340 main 310 273 ______P_______ -1 -16.8398 119.340 7 122
1955010S16118 1955 5 SI WA NOT_NAMED 1955-01-10 18:00:00 NR -17.0263 119.639 main 273 237 ______P_______ -1 -17.0263 119.639 7 124
1955010S16118 1955 5 SI WA NOT_NAMED 1955-01-10 21:00:00 NR -17.2218 119.930 main 237 202 ______P_______ -1 -17.2218 119.930 7 126
1955010S16118 1955 5 SI WA NOT_NAMED 1955-01-11 00:00:00 TS -17.4227 120.208 main 202 191 ______P__O____ -1 -17.4283 120.209 -17.4000 120.200 TC 70 970 7 130
1955010S16118 1955 5 SI WA NOT_NAMED 1955-01-11 01:00:00 TS -17.5070 120.290 970 bom main 191 170 ______O__P____ -1 -17.5000 120.300 970 -17.5211 120.270 TC 7 140
1955010S16118 1955 5 SI WA NOT_NAMED 1955-01-11 03:00:00 TS -17.6982 120.448 main 170 125 ______P__P____ -1 -17.6488 120.476 -17.7641 120.411 TC 8 145
1955010S16118 1955 5 SI WA NOT_NAMED 1955-01-11 06:00:00 TS -18.0143 120.669 main 125 90 ______P__P____ -1 -17.8948 120.723 -18.1338 120.615 TC 8 148
1955010S16118 1955 5 SI WA NOT_NAMED 1955-01-11 09:00:00 TS -18.3494 120.873 main 90 69 ______P__P____ -1 -18.1839 120.940 -18.5149 120.805 TC 8 153
1955010S16118 1955 5 SI WA NOT_NAMED 1955-01-11 12:00:00 TS -18.7236 121.047 main 69 23 ______P__P____ -1 -18.5338 121.118 -18.9134 120.975 TC 9 160
1955010S16118 1955 5 SI WA NOT_NAMED 1955-01-11 15:00:00 TS -19.1486 121.182 main 23 0 ______P__P____ -1 -18.9621 121.247 -19.3352 121.117 TC 9 166
1955010S16118 1955 5 SI WA NOT_NAMED 1955-01-11 17:00:00 TS -19.4661 121.246 960 bom main 0 0 ______O__P____ -1 -19.3000 121.300 960 4 -19.6322 121.192 TC 10 169
1955010S16118 1955 5 SI WA NOT_NAMED 1955-01-11 18:00:00 TS -19.6360 121.272 main 0 0 ______P__P____ -1 -19.4859 121.321 962 -19.7862 121.224 TC 11 175
1955010S16118 1955 5 SI WA NOT_NAMED 1955-01-11 21:00:00 TS -20.1876 121.316 main 0 0 ______P__P____ -1 -20.1026 121.345 970 -20.2725 121.287 TC 12 178
1955010S16118 1955 5 SI WA NOT_NAMED 1955-01-12 00:00:00 TS -20.7863 121.309 main 0 0 ______P__O____ -1 -20.7727 121.318 977 -20.8000 121.300 TC 60 980 12 0
1955010S16118 1955 5 SI WA NOT_NAMED 1955-01-12 01:00:00 TS -20.9930 121.296 980 bom main 0 0 ______O__P____ -1 -21.0000 121.300 980 -20.9860 121.292 TC 12 184
1955010S16118 1955 5 SI WA NOT_NAMED 1955-01-12 03:00:00 TS -21.4016 121.258 main 0 0 ______P__P____ -1 -21.4307 121.258 -21.3725 121.258 TC 13 187
1955010S16118 1955 5 SI WA NOT_NAMED 1955-01-12 06:00:00 TS -22.0336 121.161 main 0 0 ______P__P____ -1 -22.0820 121.156 -21.9851 121.166 TC 13 190
1955010S16118 1955 5 SI WA NOT_NAMED 1955-01-12 09:00:00 TS -22.6847 121.025 main 0 0 ______P__P____ -1 -22.7388 121.016 -22.6306 121.034 TC 14 192
1955010S16118 1955 5 SI WA NOT_NAMED 1955-01-12 12:00:00 TS -23.3510 120.859 main 0 0 ______P__P____ -1 -23.4003 120.847 -23.3017 120.871 TC 14 194
1955010S16118 1955 5 SI WA NOT_NAMED 1955-01-12 15:00:00 TS -24.0284 120.672 main 0 0 ______P__P____ -1 -24.0656 120.658 -23.9912 120.687 TC 14 194
1955010S16118 1955 5 SI WA NOT_NAMED 1955-01-12 18:00:00 TS -24.7129 120.474 main 0 0 ______P__P____ -1 -24.7338 120.457 -24.6921 120.490 TC 14 195
1955010S16118 1955 5 SI WA NOT_NAMED 1955-01-12 21:00:00 TS -25.4007 120.273 main 0 0 ______P__P____ -1 -25.4041 120.255 -25.3974 120.291 TC 14 195
1955010S16118 1955 5 SI WA NOT_NAMED 1955-01-13 00:00:00 TS -26.0879 120.081 main 0 0 ______P__O____ -1 -26.0759 120.061 -26.1000 120.100 TC 40 995 14 194
1955010S16118 1955 5 SI WA NOT_NAMED 1955-01-13 01:00:00 TS -26.3163 120.020 995 bom main 0 0 ______O__P____ -1 -26.3000 120.000 995 -26.3325 120.040 TC 14 193
1955010S16118 1955 5 SI WA NOT_NAMED 1955-01-13 03:00:00 TS -26.7715 119.904 main 0 0 ______P__P____ -1 -26.7485 119.884 -26.7946 119.925 TC 14 192
1955010S16118 1955 5 SI WA NOT_NAMED 1955-01-13 06:00:00 TS -27.4515 119.746 main 0 0 ______P__P____ -1 -27.4218 119.727 -27.4812 119.765 TC 14 191
1955010S16118 1955 5 SI WA NOT_NAMED 1955-01-13 09:00:00 TS -28.1285 119.602 main 0 0 ______P__P____ -1 -28.0959 119.585 -28.1610 119.618 TC 14 190
1955010S16118 1955 5 SI WA NOT_NAMED 1955-01-13 12:00:00 TS -28.8031 119.470 main 0 0 ______P__P____ -1 -28.7707 119.458 -28.8354 119.482 TC 14 189
1955010S16118 1955 5 SI WA NOT_NAMED 1955-01-13 15:00:00 TS -29.4758 119.349 main 0 0 ______P__P____ -1 -29.4462 119.342 -29.5055 119.355 TC 14 189
1955010S16118 1955 5 SI WA NOT_NAMED 1955-01-13 18:00:00 TS -30.1437 119.234 main 0 0 ______P__P____ -1 -30.1222 119.235 -30.1723 119.234 TC 14 188
1955010S16118 1955 5 SI WA NOT_NAMED 1955-01-13 21:00:00 TS -30.8138 119.126 main 0 0 ______P__P____ -1 -30.7985 119.133 -30.8368 119.116 TC 14 188
1955010S16118 1955 5 SI WA NOT_NAMED 1955-01-14 00:00:00 TS -31.4831 119.022 main 0 0 ______P__O____ -1 -31.4747 119.033 -31.5000 119.000 TC 20 1005 13 187
1955010S16118 1955 5 SI WA NOT_NAMED 1955-01-14 01:00:00 NR -31.7000 119.000 1005 bom main 0 ______O_______ -1 -31.7000 119.000 1005 TC 13 0

IBTrACS Databaseについて

本データベースは、米国NOAAが公開する1842年以降の世界の熱帯低気圧のベストトラックデータアーカイブInternational Best Track Archive for Climate Stewardship (IBTrACS)を、ウェブで閲覧しやすい形式に変換したものです。

最終更新日:2021-10-21